createdAt,value
2023-03-02T00:00:58.302Z,7.78
2023-03-02T00:02:23.237Z,8.13
2023-03-02T00:03:46.791Z,7.63
2023-03-02T00:05:15.210Z,7.60
2023-03-02T00:06:39.541Z,7.03
2023-03-02T00:08:03.849Z,8.10
2023-03-02T00:09:26.292Z,7.88
2023-03-02T00:10:51.287Z,7.18
2023-03-02T00:12:13.940Z,7.40
2023-03-02T00:13:38.278Z,8.13
2023-03-02T00:15:00.686Z,8.65
2023-03-02T00:16:25.624Z,7.60
2023-03-02T00:17:49.069Z,7.40
2023-03-02T00:19:11.529Z,7.38
2023-03-02T00:20:35.955Z,7.53
2023-03-02T00:22:00.759Z,8.57
2023-03-02T00:23:23.174Z,8.73
2023-03-02T00:24:46.586Z,7.78
2023-03-02T00:26:09.985Z,7.28
2023-03-02T00:27:32.521Z,9.10
2023-03-02T00:28:55.936Z,8.63
2023-03-02T00:30:18.503Z,9.15
2023-03-02T00:31:43.317Z,9.20
2023-03-02T00:33:05.855Z,8.50
2023-03-02T00:34:32.274Z,8.50
2023-03-02T00:35:55.694Z,7.70
2023-03-02T00:37:18.324Z,9.43
2023-03-02T00:38:41.706Z,8.10
2023-03-02T00:40:06.708Z,8.52
2023-03-02T00:41:30.723Z,6.93
2023-03-02T00:42:54.102Z,8.90
2023-03-02T00:44:17.651Z,7.80
2023-03-02T00:45:41.156Z,8.18
2023-03-02T00:47:06.034Z,7.68
2023-03-02T00:48:28.533Z,7.88
2023-03-02T00:49:52.135Z,8.50
2023-03-02T00:51:16.205Z,8.85
2023-03-02T00:52:39.617Z,7.68
2023-03-02T00:54:03.096Z,9.43
2023-03-02T00:55:27.306Z,7.82
2023-03-02T00:56:49.718Z,8.35
2023-03-02T00:58:13.082Z,8.38
2023-03-02T00:59:37.821Z,8.32
2023-03-02T01:01:06.068Z,8.57
2023-03-02T01:02:31.032Z,7.95
2023-03-02T01:03:54.439Z,8.55
2023-03-02T01:05:17.507Z,7.97
2023-03-02T01:06:47.972Z,8.50
2023-03-02T01:08:11.358Z,10.80
2023-03-02T01:09:34.065Z,8.00
2023-03-02T01:11:01.165Z,7.43
2023-03-02T01:12:23.741Z,8.57
2023-03-02T01:13:47.161Z,8.70
2023-03-02T01:15:11.047Z,7.88
2023-03-02T01:16:35.280Z,7.88
2023-03-02T01:18:02.319Z,8.43
2023-03-02T01:19:24.837Z,8.45
2023-03-02T01:20:48.257Z,9.00
2023-03-02T01:22:12.064Z,8.27
2023-03-02T01:23:36.996Z,7.95
2023-03-02T01:25:00.367Z,8.15
2023-03-02T01:26:22.819Z,9.23
2023-03-02T01:27:46.221Z,7.75
2023-03-02T01:29:09.446Z,8.25
2023-03-02T01:30:32.812Z,8.35
2023-03-02T01:31:55.268Z,8.45
2023-03-02T01:33:20.125Z,8.85
2023-03-02T01:34:44.700Z,7.53
2023-03-02T01:36:09.203Z,8.00
2023-03-02T01:37:32.616Z,8.40
2023-03-02T01:38:56.024Z,8.43
2023-03-02T01:40:19.323Z,8.32
2023-03-02T01:41:42.920Z,8.70
2023-03-02T01:43:17.177Z,8.23
2023-03-02T01:44:43.685Z,8.82
2023-03-02T01:46:07.719Z,7.78
2023-03-02T01:47:35.106Z,7.70
2023-03-02T01:49:01.010Z,8.48
2023-03-02T01:50:26.697Z,8.20
2023-03-02T01:51:50.313Z,8.45
2023-03-02T01:53:14.590Z,8.65
2023-03-02T01:54:39.178Z,8.60
2023-03-02T01:56:04.329Z,8.52
2023-03-02T01:57:31.678Z,7.75
2023-03-02T01:59:01.900Z,8.30
2023-03-02T02:00:28.227Z,7.82
2023-03-02T02:01:53.017Z,8.23
2023-03-02T02:03:22.355Z,8.13
2023-03-02T02:04:46.809Z,8.38
2023-03-02T02:06:18.009Z,8.27
2023-03-02T02:07:40.908Z,7.95
2023-03-02T02:09:06.798Z,8.07
2023-03-02T02:10:29.845Z,8.30
2023-03-02T02:11:53.346Z,8.18
2023-03-02T02:13:15.738Z,8.85
2023-03-02T02:14:39.189Z,8.15
2023-03-02T02:16:02.698Z,8.07
2023-03-02T02:17:26.275Z,8.55
2023-03-02T02:18:49.788Z,8.70
2023-03-02T02:20:23.999Z,9.10
2023-03-02T02:21:46.822Z,9.05
2023-03-02T02:23:26.696Z,9.07
2023-03-02T02:24:54.073Z,7.72
2023-03-02T02:26:27.871Z,8.90
2023-03-02T02:27:51.365Z,8.07
2023-03-02T02:29:18.942Z,8.63
2023-03-02T02:30:41.564Z,7.80
2023-03-02T02:32:13.014Z,9.30
2023-03-02T02:33:36.343Z,7.85
2023-03-02T02:35:02.864Z,8.77
2023-03-02T02:36:27.439Z,8.75
2023-03-02T02:37:52.857Z,7.82
2023-03-02T02:39:18.797Z,9.20
2023-03-02T02:40:46.603Z,8.48
2023-03-02T02:42:15.196Z,8.70
2023-03-02T02:43:37.757Z,8.35
2023-03-02T02:45:03.283Z,8.25
2023-03-02T02:46:27.089Z,8.50
2023-03-02T02:47:49.953Z,8.77
2023-03-02T02:49:22.670Z,8.60
2023-03-02T02:50:45.696Z,8.48
2023-03-02T02:52:11.386Z,8.23
2023-03-02T02:53:41.196Z,8.32
2023-03-02T02:55:05.258Z,8.63
2023-03-02T02:56:31.106Z,8.25
2023-03-02T02:57:58.364Z,9.82
2023-03-02T02:59:24.615Z,7.75
2023-03-02T03:00:46.979Z,8.18
2023-03-02T03:02:13.377Z,8.57
2023-03-02T03:03:39.249Z,8.38
2023-03-02T03:05:03.960Z,8.73
2023-03-02T03:06:30.701Z,8.40
2023-03-02T03:07:54.228Z,8.75
2023-03-02T03:09:17.823Z,8.68
2023-03-02T03:10:43.238Z,8.32
2023-03-02T03:12:13.934Z,8.75
2023-03-02T03:13:38.329Z,8.20
2023-03-02T03:15:02.313Z,8.10
2023-03-02T03:16:28.207Z,6.90
2023-03-02T03:17:58.554Z,8.50
2023-03-02T03:19:24.212Z,8.27
2023-03-02T03:20:46.977Z,8.75
2023-03-02T03:22:12.832Z,8.07
2023-03-02T03:23:38.987Z,7.90
2023-03-02T03:25:02.771Z,8.65
2023-03-02T03:26:25.258Z,8.07
2023-03-02T03:27:48.720Z,8.90
2023-03-02T03:29:21.445Z,9.07
2023-03-02T03:30:43.861Z,8.90
2023-03-02T03:32:07.867Z,8.75
2023-03-02T03:33:30.340Z,8.52
2023-03-02T03:34:55.326Z,8.35
2023-03-02T03:36:18.018Z,9.10
2023-03-02T03:37:43.371Z,9.35
2023-03-02T03:39:06.258Z,8.00
2023-03-02T03:40:29.738Z,8.95
2023-03-02T03:41:52.233Z,8.43
2023-03-02T03:43:16.329Z,9.02
2023-03-02T03:44:41.065Z,9.00
2023-03-02T03:46:03.625Z,8.05
2023-03-02T03:47:27.051Z,9.85
2023-03-02T03:48:50.652Z,8.02
2023-03-02T03:50:13.347Z,9.43
2023-03-02T03:51:36.741Z,8.88
2023-03-02T03:52:59.132Z,8.82
2023-03-02T03:54:22.603Z,9.32
2023-03-02T03:55:44.998Z,8.63
2023-03-02T03:57:08.541Z,8.68
2023-03-02T03:58:31.396Z,9.18
2023-03-02T03:59:56.293Z,8.48
2023-03-02T04:01:18.707Z,8.80
2023-03-02T04:02:42.632Z,8.73
2023-03-02T04:04:06.292Z,9.18
2023-03-02T04:05:31.580Z,9.02
2023-03-02T04:06:55.823Z,9.93
2023-03-02T04:08:24.246Z,8.38
2023-03-02T04:09:47.708Z,8.40
2023-03-02T04:11:11.096Z,8.85
2023-03-02T04:12:35.924Z,10.05
2023-03-02T04:14:00.544Z,8.43
2023-03-02T04:15:29.997Z,9.23
2023-03-02T04:16:52.543Z,9.27
2023-03-02T04:18:15.983Z,8.95
2023-03-02T04:19:39.176Z,8.80
2023-03-02T04:21:02.591Z,9.05
2023-03-02T04:22:25.127Z,9.32
2023-03-02T04:23:48.563Z,9.32
2023-03-02T04:25:11.231Z,9.75
2023-03-02T04:26:35.335Z,9.23
2023-03-02T04:27:58.798Z,10.40
2023-03-02T04:29:28.474Z,9.30
2023-03-02T04:30:53.762Z,9.93
2023-03-02T04:32:16.245Z,10.02
2023-03-02T04:33:39.954Z,9.15
2023-03-02T04:35:03.440Z,10.02
2023-03-02T04:36:27.115Z,9.02
2023-03-02T04:37:50.491Z,8.95
2023-03-02T04:39:15.442Z,10.07
2023-03-02T04:40:39.132Z,9.50
2023-03-02T04:42:03.421Z,9.10
2023-03-02T04:43:26.251Z,10.27
2023-03-02T04:44:49.689Z,10.00
2023-03-02T04:46:16.623Z,10.02
2023-03-02T04:47:39.226Z,10.07
2023-03-02T04:49:02.703Z,9.75
2023-03-02T04:50:25.265Z,9.63
2023-03-02T04:51:50.205Z,9.23
2023-03-02T04:53:13.656Z,9.25
2023-03-02T04:54:37.044Z,10.18
2023-03-02T04:56:00.743Z,9.52
2023-03-02T04:57:23.212Z,8.82
2023-03-02T04:58:46.612Z,9.57
2023-03-02T05:00:10.880Z,9.73
2023-03-02T05:01:35.781Z,8.75
2023-03-02T05:02:59.276Z,8.95
2023-03-02T05:04:22.883Z,9.57
2023-03-02T05:05:46.282Z,8.57
2023-03-02T05:07:08.792Z,9.68
2023-03-02T05:08:32.958Z,10.27
2023-03-02T05:09:56.411Z,10.40
2023-03-02T05:11:22.464Z,9.52
2023-03-02T05:12:57.796Z,8.88
2023-03-02T05:14:21.308Z,8.48
2023-03-02T05:15:46.439Z,10.02
2023-03-02T05:17:11.298Z,9.10
2023-03-02T05:18:33.670Z,10.30
2023-03-02T05:19:57.030Z,9.77
2023-03-02T05:21:20.670Z,9.25
2023-03-02T05:22:44.082Z,8.70
2023-03-02T05:24:08.106Z,9.38
2023-03-02T05:25:33.848Z,10.32
2023-03-02T05:26:57.153Z,10.40
2023-03-02T05:28:21.072Z,9.73
2023-03-02T05:29:44.741Z,8.82
2023-03-02T05:31:08.492Z,8.85
2023-03-02T05:32:32.329Z,9.38
2023-03-02T05:33:55.769Z,10.65
2023-03-02T05:35:19.659Z,10.20
2023-03-02T05:36:43.278Z,9.10
2023-03-02T05:38:05.899Z,10.48
2023-03-02T05:39:29.439Z,9.75
2023-03-02T05:40:51.831Z,9.80
2023-03-02T05:42:15.224Z,10.57
2023-03-02T05:43:38.698Z,10.23
2023-03-02T05:45:01.076Z,9.50
2023-03-02T05:46:25.057Z,9.95
2023-03-02T05:47:48.785Z,10.38
2023-03-02T05:49:12.951Z,9.27
2023-03-02T05:50:35.385Z,10.60
2023-03-02T05:51:58.789Z,10.45
2023-03-02T05:53:21.490Z,11.52
2023-03-02T05:54:44.929Z,10.30
2023-03-02T05:56:07.952Z,11.20
2023-03-02T05:57:31.352Z,10.35
2023-03-02T05:58:54.787Z,9.60
2023-03-02T06:00:19.069Z,10.48
2023-03-02T06:01:42.526Z,10.85
2023-03-02T06:03:06.485Z,10.90
2023-03-02T06:04:29.914Z,11.77
2023-03-02T06:05:52.410Z,11.52
2023-03-02T06:07:15.878Z,11.77
2023-03-02T06:08:41.009Z,12.25
2023-03-02T06:10:04.587Z,11.15
2023-03-02T06:11:31.018Z,11.25
2023-03-02T06:12:53.394Z,11.43
2023-03-02T06:14:16.835Z,11.90
2023-03-02T06:15:43.886Z,11.55
2023-03-02T06:17:08.183Z,11.82
2023-03-02T06:18:32.203Z,11.70
2023-03-02T06:19:55.603Z,12.65
2023-03-02T06:21:18.943Z,11.73
2023-03-02T06:22:43.223Z,12.18
2023-03-02T06:24:07.069Z,11.30
2023-03-02T06:25:29.507Z,12.45
2023-03-02T06:26:55.220Z,12.70
2023-03-02T06:28:19.818Z,11.32
2023-03-02T06:29:43.372Z,13.45
2023-03-02T06:31:07.618Z,10.13
2023-03-02T06:32:34.156Z,12.27
2023-03-02T06:34:00.045Z,12.27
2023-03-02T06:35:24.187Z,11.05
2023-03-02T06:36:47.769Z,11.48
2023-03-02T06:38:11.161Z,12.15
2023-03-02T06:39:34.973Z,12.77
2023-03-02T06:40:59.468Z,12.20
2023-03-02T06:42:22.977Z,13.00
2023-03-02T06:43:46.628Z,10.85
2023-03-02T06:45:11.245Z,12.65
2023-03-02T06:46:35.068Z,11.40
2023-03-02T06:47:58.482Z,12.32
2023-03-02T06:49:24.740Z,11.45
2023-03-02T06:50:48.153Z,12.90
2023-03-02T06:52:11.026Z,12.18
2023-03-02T06:53:34.774Z,11.80
2023-03-02T06:54:58.286Z,12.35
2023-03-02T06:56:22.722Z,12.43
2023-03-02T06:57:46.190Z,12.25
2023-03-02T06:59:09.605Z,12.00
2023-03-02T07:00:33.099Z,11.65
2023-03-02T07:01:56.534Z,12.55
2023-03-02T07:03:19.925Z,12.60
2023-03-02T07:04:44.690Z,12.07
2023-03-02T07:06:08.475Z,12.52
2023-03-02T07:07:32.022Z,12.65
2023-03-02T07:08:55.392Z,11.23
2023-03-02T07:10:18.941Z,12.93
2023-03-02T07:11:42.541Z,13.23
2023-03-02T07:13:08.085Z,12.23
2023-03-02T07:14:32.452Z,12.60
2023-03-02T07:15:54.931Z,12.98
2023-03-02T07:17:18.451Z,12.23
2023-03-02T07:18:42.670Z,12.27
2023-03-02T07:20:08.444Z,13.57
2023-03-02T07:21:31.013Z,13.20
2023-03-02T07:22:54.493Z,14.50
2023-03-02T07:24:17.868Z,13.45
2023-03-02T07:25:41.295Z,14.82
2023-03-02T07:27:05.056Z,12.82
2023-03-02T07:28:28.442Z,14.77
2023-03-02T07:29:52.839Z,13.35
2023-03-02T07:31:16.522Z,13.93
2023-03-02T07:32:39.981Z,14.18
2023-03-02T07:34:02.473Z,13.88
2023-03-02T07:35:29.005Z,14.93
2023-03-02T07:36:52.669Z,14.10
2023-03-02T07:38:16.087Z,14.23
2023-03-02T07:39:39.447Z,14.02
2023-03-02T07:41:06.560Z,13.98
2023-03-02T07:42:29.991Z,14.35
2023-03-02T07:43:53.368Z,14.00
2023-03-02T07:45:20.143Z,13.70
2023-03-02T07:46:43.574Z,13.23
2023-03-02T07:48:07.397Z,13.98
2023-03-02T07:49:30.836Z,14.27
2023-03-02T07:50:59.531Z,14.13
2023-03-02T07:52:22.910Z,14.50
2023-03-02T07:53:46.313Z,12.05
2023-03-02T07:55:10.916Z,13.18
2023-03-02T07:56:34.373Z,13.73
2023-03-02T07:57:57.733Z,13.65
2023-03-02T07:59:21.097Z,13.25
2023-03-02T08:00:44.511Z,13.35
2023-03-02T08:02:08.119Z,13.45
2023-03-02T08:03:32.305Z,14.10
2023-03-02T08:04:55.686Z,13.75
2023-03-02T08:06:20.521Z,13.57
2023-03-02T08:07:43.974Z,13.43
2023-03-02T08:09:08.672Z,13.88
2023-03-02T08:10:32.057Z,12.23
2023-03-02T08:11:55.437Z,13.20
2023-03-02T08:13:17.803Z,12.60
2023-03-02T08:14:41.272Z,12.80
2023-03-02T08:16:07.104Z,12.98
2023-03-02T08:17:30.583Z,12.68
2023-03-02T08:18:54.280Z,14.35
2023-03-02T08:20:18.604Z,13.90
2023-03-02T08:21:43.346Z,14.57
2023-03-02T08:23:06.713Z,14.48
2023-03-02T08:24:30.216Z,13.73
2023-03-02T08:25:54.197Z,14.80
2023-03-02T08:27:17.614Z,14.18
2023-03-02T08:28:41.169Z,13.18
2023-03-02T08:30:05.192Z,14.43
2023-03-02T08:31:28.674Z,14.15
2023-03-02T08:32:52.085Z,15.40
2023-03-02T08:34:15.465Z,14.05
2023-03-02T08:35:37.895Z,15.43
2023-03-02T08:37:03.528Z,14.48
2023-03-02T08:38:27.223Z,14.75
2023-03-02T08:39:51.708Z,14.57
2023-03-02T08:41:16.477Z,14.30
2023-03-02T08:42:40.034Z,15.95
2023-03-02T08:44:03.501Z,14.80
2023-03-02T08:45:27.049Z,14.88
2023-03-02T08:46:50.995Z,13.90
2023-03-02T08:48:15.175Z,14.02
2023-03-02T08:49:38.858Z,14.13
2023-03-02T08:51:05.008Z,14.23
2023-03-02T08:52:29.708Z,13.95
2023-03-02T08:53:55.501Z,15.07
2023-03-02T08:55:19.397Z,14.00
2023-03-02T08:56:44.386Z,14.25
2023-03-02T08:58:07.810Z,15.27
2023-03-02T08:59:31.224Z,15.73
2023-03-02T09:00:54.678Z,15.82
2023-03-02T09:02:18.139Z,14.57
2023-03-02T09:03:41.663Z,15.80
2023-03-02T09:05:05.309Z,15.40
2023-03-02T09:06:29.805Z,14.95
2023-03-02T09:07:54.942Z,15.90
2023-03-02T09:09:18.364Z,14.63
2023-03-02T09:10:41.618Z,14.68
2023-03-02T09:12:05.209Z,14.93
2023-03-02T09:13:28.639Z,15.90
2023-03-02T09:14:52.015Z,15.27
2023-03-02T09:16:16.932Z,15.98
2023-03-02T09:17:40.369Z,17.90
2023-03-02T09:19:03.958Z,16.48
2023-03-02T09:20:27.347Z,16.63
2023-03-02T09:21:51.876Z,16.88
2023-03-02T09:23:16.604Z,16.13
2023-03-02T09:24:39.969Z,15.88
2023-03-02T09:26:03.521Z,16.17
2023-03-02T09:27:27.061Z,16.83
2023-03-02T09:28:50.572Z,16.48
2023-03-02T09:30:15.929Z,16.90
2023-03-02T09:31:39.337Z,17.30
2023-03-02T09:33:02.938Z,15.98
2023-03-02T09:34:26.367Z,17.05
2023-03-02T09:35:50.196Z,17.05
2023-03-02T09:37:13.625Z,18.10
2023-03-02T09:38:38.545Z,17.67
2023-03-02T09:40:01.927Z,17.17
2023-03-02T09:41:59.600Z,17.17
2023-03-02T09:43:33.984Z,18.48
2023-03-02T09:45:11.904Z,16.88
2023-03-02T09:46:37.549Z,17.23
2023-03-02T09:48:09.047Z,17.25
2023-03-02T09:49:42.038Z,17.92
2023-03-02T09:51:21.228Z,17.30
2023-03-02T09:52:52.022Z,17.70
2023-03-02T09:54:20.526Z,18.15
2023-03-02T09:55:43.881Z,17.83
2023-03-02T09:57:21.328Z,15.88
2023-03-02T09:58:49.443Z,16.70
2023-03-02T10:00:19.645Z,16.67
2023-03-02T10:01:48.654Z,17.65
2023-03-02T10:03:17.788Z,18.50
2023-03-02T10:04:45.975Z,17.95
2023-03-02T10:06:10.498Z,17.65
2023-03-02T10:07:35.176Z,16.85
2023-03-02T10:08:58.842Z,18.10
2023-03-02T10:10:30.420Z,18.15
2023-03-02T10:12:09.589Z,17.70
2023-03-02T10:13:36.935Z,17.05
2023-03-02T10:15:06.095Z,16.98
2023-03-02T10:16:36.663Z,17.10
2023-03-02T10:18:05.262Z,17.38
2023-03-02T10:19:33.401Z,15.88
2023-03-02T10:21:02.398Z,15.82
2023-03-02T10:22:28.388Z,14.88
2023-03-02T10:23:56.162Z,14.10
2023-03-02T10:25:29.852Z,15.20
2023-03-02T10:26:56.531Z,15.32
2023-03-02T10:28:22.103Z,13.85
2023-03-02T10:29:51.201Z,15.32
2023-03-02T10:31:19.211Z,14.48
2023-03-02T10:32:46.228Z,15.98
2023-03-02T10:34:11.741Z,14.63
2023-03-02T10:35:35.846Z,14.18
2023-03-02T10:36:59.461Z,14.00
2023-03-02T10:38:25.200Z,13.88
2023-03-02T10:39:48.680Z,13.43
2023-03-02T10:41:16.562Z,13.20
2023-03-02T10:42:41.396Z,13.60
2023-03-02T10:44:08.697Z,13.63
2023-03-02T10:45:33.054Z,13.18
2023-03-02T10:46:56.578Z,12.63
2023-03-02T10:48:19.970Z,13.02
2023-03-02T10:49:44.394Z,14.45
2023-03-02T10:51:08.028Z,13.23
2023-03-02T10:52:31.449Z,13.32
2023-03-02T10:54:05.817Z,12.35
2023-03-02T10:55:29.357Z,13.60
2023-03-02T10:56:56.651Z,12.35
2023-03-02T10:58:25.961Z,11.82
2023-03-02T10:59:49.718Z,12.27
2023-03-02T11:01:18.880Z,12.35
2023-03-02T11:02:50.888Z,12.35
2023-03-02T11:04:17.134Z,11.52
2023-03-02T11:05:44.338Z,13.15
2023-03-02T11:07:12.997Z,11.80
2023-03-02T11:08:36.429Z,11.85
2023-03-02T11:10:01.810Z,9.98
2023-03-02T11:11:26.047Z,10.82
2023-03-02T11:12:53.729Z,11.23
2023-03-02T11:14:18.204Z,12.32
2023-03-02T11:15:44.824Z,11.80
2023-03-02T11:17:29.864Z,11.35
2023-03-02T11:18:56.910Z,12.50
2023-03-02T11:20:25.709Z,12.40
2023-03-02T11:21:51.924Z,12.18
2023-03-02T11:23:19.423Z,12.25
2023-03-02T11:24:47.357Z,11.48
2023-03-02T11:26:16.886Z,10.05
2023-03-02T11:27:42.524Z,10.57
2023-03-02T11:29:13.261Z,10.85
2023-03-02T11:30:41.802Z,11.90
2023-03-02T11:32:12.450Z,10.65
2023-03-02T11:33:37.793Z,10.48
2023-03-02T11:35:04.665Z,11.32
2023-03-02T11:36:38.161Z,10.73
2023-03-02T11:38:05.611Z,11.60
2023-03-02T11:39:46.543Z,9.70
2023-03-02T11:41:31.861Z,11.30
2023-03-02T11:42:58.201Z,10.93
2023-03-02T11:44:24.738Z,9.55
2023-03-02T11:45:51.607Z,10.27
2023-03-02T11:47:15.504Z,10.48
2023-03-02T11:48:41.597Z,9.68
2023-03-02T11:50:06.884Z,10.80
2023-03-02T11:51:31.957Z,10.30
2023-03-02T11:52:59.815Z,10.38
2023-03-02T11:54:36.743Z,9.35
2023-03-02T11:56:00.151Z,10.48
2023-03-02T11:57:26.881Z,9.55
2023-03-02T11:58:53.626Z,10.40
2023-03-02T12:00:28.468Z,8.98
2023-03-02T12:01:54.033Z,9.52
2023-03-02T12:03:24.076Z,8.27
2023-03-02T12:04:49.076Z,10.18
2023-03-02T12:06:29.918Z,10.38
2023-03-02T12:07:59.426Z,8.85
2023-03-02T12:09:40.489Z,10.23
2023-03-02T12:11:06.158Z,9.43
2023-03-02T12:12:44.429Z,10.55
2023-03-02T12:14:28.071Z,9.82
2023-03-02T12:15:52.961Z,9.40
2023-03-02T12:17:23.088Z,9.82
2023-03-02T12:18:49.877Z,9.80
2023-03-02T12:20:28.173Z,10.27
2023-03-02T12:21:59.285Z,9.07
2023-03-02T12:23:25.251Z,9.05
2023-03-02T12:24:52.073Z,9.05
2023-03-02T12:26:28.110Z,8.90
2023-03-02T12:27:53.962Z,8.32
2023-03-02T12:29:25.397Z,7.97
2023-03-02T12:31:05.210Z,9.20
2023-03-02T12:32:30.570Z,8.77
2023-03-02T12:33:54.678Z,9.45
2023-03-02T12:35:19.966Z,7.20
2023-03-02T12:36:44.882Z,8.27
2023-03-02T12:38:17.782Z,7.85
2023-03-02T12:40:10.690Z,9.07
2023-03-02T12:41:46.020Z,8.90
2023-03-02T12:43:28.919Z,8.82
2023-03-02T12:44:56.123Z,8.02
2023-03-02T12:46:30.066Z,8.35
2023-03-02T12:48:01.266Z,9.27
2023-03-02T12:49:43.442Z,7.85
2023-03-02T12:51:07.516Z,9.43
2023-03-02T12:52:32.268Z,8.88
2023-03-02T12:54:04.392Z,10.23
2023-03-02T12:55:27.919Z,9.45
2023-03-02T12:56:52.007Z,9.68
2023-03-02T12:58:19.715Z,10.35
2023-03-02T12:59:43.819Z,10.07
2023-03-02T13:01:07.544Z,8.27
2023-03-02T13:02:33.899Z,9.18
2023-03-02T13:03:57.847Z,10.02
2023-03-02T13:05:23.313Z,9.93
2023-03-02T13:06:46.713Z,10.32
2023-03-02T13:08:14.154Z,8.63
2023-03-02T13:09:40.134Z,9.50
2023-03-02T13:11:06.191Z,9.88
2023-03-02T13:12:30.250Z,10.77
2023-03-02T13:13:53.806Z,8.90
2023-03-02T13:15:18.618Z,10.38
2023-03-02T13:16:42.805Z,7.97
2023-03-02T13:18:07.751Z,10.38
2023-03-02T13:19:32.011Z,9.82
2023-03-02T13:20:55.806Z,10.30
2023-03-02T13:22:20.022Z,9.77
2023-03-02T13:23:47.963Z,9.73
2023-03-02T13:25:24.491Z,8.98
2023-03-02T13:26:56.324Z,10.38
2023-03-02T13:28:29.528Z,9.07
2023-03-02T13:29:55.489Z,8.68
2023-03-02T13:31:22.362Z,8.20
2023-03-02T13:32:45.818Z,9.88
2023-03-02T13:34:22.525Z,9.70
2023-03-02T13:35:48.243Z,8.68
2023-03-02T13:37:22.254Z,8.88
2023-03-02T13:38:50.359Z,9.10
2023-03-02T13:40:42.630Z,9.15
2023-03-02T13:42:08.772Z,10.02
2023-03-02T13:43:38.584Z,8.98
2023-03-02T13:45:25.897Z,8.45
2023-03-02T13:46:51.351Z,8.90
2023-03-02T13:48:16.275Z,9.57
2023-03-02T13:49:41.069Z,10.60
2023-03-02T13:51:13.399Z,9.55
2023-03-02T13:52:36.875Z,9.63
2023-03-02T13:54:01.504Z,10.15
2023-03-02T13:55:25.720Z,7.63
2023-03-02T13:56:50.983Z,7.20
2023-03-02T13:58:18.686Z,8.43
2023-03-02T13:59:42.251Z,9.77
2023-03-02T14:01:06.982Z,7.53
2023-03-02T14:02:31.253Z,7.95
2023-03-02T14:03:56.460Z,9.75
2023-03-02T14:05:24.317Z,9.10
2023-03-02T14:06:47.953Z,8.85
2023-03-02T14:08:11.664Z,8.93
2023-03-02T14:09:35.239Z,9.70
2023-03-02T14:11:00.972Z,10.10
2023-03-02T14:12:27.159Z,9.05
2023-03-02T14:13:54.351Z,9.63
2023-03-02T14:15:18.094Z,9.55
2023-03-02T14:16:41.661Z,7.22
2023-03-02T14:18:06.655Z,8.40
2023-03-02T14:19:30.350Z,8.63
2023-03-02T14:20:55.235Z,6.35
2023-03-02T14:22:18.595Z,7.85
2023-03-02T14:23:42.205Z,8.25
2023-03-02T14:25:06.337Z,8.88
2023-03-02T14:26:33.557Z,8.13
2023-03-02T14:27:56.949Z,7.18
2023-03-02T14:29:24.788Z,7.65
2023-03-02T14:30:48.240Z,8.10
2023-03-02T14:32:14.790Z,6.00
2023-03-02T14:33:38.794Z,7.80
2023-03-02T14:35:02.404Z,7.85
2023-03-02T14:36:29.940Z,4.88
2023-03-02T14:37:54.144Z,6.43
2023-03-02T14:39:22.572Z,6.35
2023-03-02T14:40:46.025Z,6.65
2023-03-02T14:42:14.434Z,7.53
2023-03-02T14:43:38.759Z,6.80
2023-03-02T14:45:02.153Z,6.15
2023-03-02T14:46:25.578Z,7.03
2023-03-02T14:47:49.435Z,6.95
2023-03-02T14:49:14.624Z,6.80
2023-03-02T14:50:41.103Z,6.85
2023-03-02T14:52:07.949Z,5.95
2023-03-02T14:53:33.661Z,6.78
2023-03-02T14:54:59.103Z,6.03
2023-03-02T14:56:28.221Z,4.65
2023-03-02T14:57:55.148Z,4.97
2023-03-02T14:59:18.698Z,6.95
2023-03-02T15:00:42.760Z,6.30
2023-03-02T15:02:19.023Z,6.07
2023-03-02T15:03:47.818Z,6.60
2023-03-02T15:05:11.682Z,6.03
2023-03-02T15:06:37.890Z,4.70
2023-03-02T15:08:02.761Z,2.58
2023-03-02T15:09:26.112Z,5.82
2023-03-02T15:10:56.069Z,6.40
2023-03-02T15:12:19.489Z,6.82
2023-03-02T15:13:45.364Z,5.90
2023-03-02T15:15:10.167Z,4.95
2023-03-02T15:16:33.601Z,6.70
2023-03-02T15:17:57.455Z,6.72
2023-03-02T15:19:20.844Z,6.35
2023-03-02T15:20:44.232Z,5.40
2023-03-02T15:22:06.679Z,6.38
2023-03-02T15:23:31.492Z,7.13
2023-03-02T15:24:54.883Z,6.55
2023-03-02T15:26:18.885Z,6.63
2023-03-02T15:27:42.578Z,5.72
2023-03-02T15:29:06.098Z,5.50
2023-03-02T15:30:30.589Z,6.63
2023-03-02T15:31:54.176Z,5.20
2023-03-02T15:33:17.552Z,3.30
2023-03-02T15:34:41.560Z,4.75
2023-03-02T15:36:06.293Z,6.00
2023-03-02T15:37:29.704Z,5.53
2023-03-02T15:38:55.038Z,5.57
2023-03-02T15:40:20.343Z,6.25
2023-03-02T15:41:43.716Z,4.80
2023-03-02T15:43:07.092Z,6.25
2023-03-02T15:44:30.567Z,5.93
2023-03-02T15:45:54.324Z,5.65
2023-03-02T15:47:17.772Z,6.75
2023-03-02T15:48:41.186Z,4.30
2023-03-02T15:50:04.841Z,5.38
2023-03-02T15:51:28.400Z,5.65
2023-03-02T15:52:52.138Z,5.00
2023-03-02T15:54:17.259Z,4.75
2023-03-02T15:55:42.510Z,6.43
2023-03-02T15:57:07.654Z,6.50
2023-03-02T15:58:31.042Z,6.82
2023-03-02T15:59:54.390Z,6.18
2023-03-02T16:01:20.479Z,5.82
2023-03-02T16:02:44.011Z,6.35
2023-03-02T16:04:07.453Z,6.45
2023-03-02T16:05:31.580Z,5.95
2023-03-02T16:06:56.264Z,5.28
2023-03-02T16:08:20.091Z,4.72
2023-03-02T16:09:45.306Z,4.45
2023-03-02T16:11:09.427Z,4.80
2023-03-02T16:12:32.923Z,5.85
2023-03-02T16:13:56.295Z,4.57
2023-03-02T16:15:19.672Z,5.25
2023-03-02T16:16:43.306Z,5.38
2023-03-02T16:18:05.936Z,5.55
2023-03-02T16:19:29.343Z,5.15
2023-03-02T16:20:51.717Z,4.93
2023-03-02T16:22:15.148Z,5.90
2023-03-02T16:23:38.525Z,5.68
2023-03-02T16:25:03.302Z,6.03
2023-03-02T16:26:26.673Z,4.80
2023-03-02T16:27:50.118Z,5.15
2023-03-02T16:29:14.439Z,4.90
2023-03-02T16:30:38.067Z,5.35
2023-03-02T16:32:01.605Z,5.40
2023-03-02T16:33:24.065Z,6.13
2023-03-02T16:34:47.424Z,5.45
2023-03-02T16:36:11.958Z,5.00
2023-03-02T16:37:35.438Z,6.45
2023-03-02T16:38:58.896Z,6.68
2023-03-02T16:40:24.187Z,5.90
2023-03-02T16:41:48.550Z,6.00
2023-03-02T16:43:11.909Z,5.72
2023-03-02T16:44:35.292Z,5.53
2023-03-02T16:45:58.836Z,6.40
2023-03-02T16:47:23.200Z,7.25
2023-03-02T16:48:47.500Z,6.97
2023-03-02T16:50:12.416Z,8.15
2023-03-02T16:51:35.834Z,7.68
2023-03-02T16:52:59.719Z,9.10
2023-03-02T16:54:23.158Z,8.70
2023-03-02T16:55:46.918Z,9.77
2023-03-02T16:57:10.437Z,8.48
2023-03-02T16:58:34.074Z,8.32
2023-03-02T16:59:57.536Z,7.38
2023-03-02T17:01:24.610Z,5.85
2023-03-02T17:02:48.203Z,6.00
2023-03-02T17:04:19.327Z,6.05
2023-03-02T17:05:43.497Z,6.10
2023-03-02T17:07:07.891Z,5.60
2023-03-02T17:08:31.324Z,5.65
2023-03-02T17:09:54.872Z,6.35
2023-03-02T17:11:19.816Z,6.30
2023-03-02T17:12:43.244Z,6.30
2023-03-02T17:14:06.622Z,6.63
2023-03-02T17:15:30.057Z,8.00
2023-03-02T17:16:53.473Z,8.57
2023-03-02T17:18:17.196Z,8.70
2023-03-02T17:19:40.555Z,8.50
2023-03-02T17:21:06.225Z,8.38
2023-03-02T17:22:29.611Z,7.38
2023-03-02T17:23:52.982Z,6.85
2023-03-02T17:25:18.013Z,6.38
2023-03-02T17:26:42.908Z,6.40
2023-03-02T17:28:06.550Z,7.60
2023-03-02T17:29:29.974Z,5.90
2023-03-02T17:30:53.556Z,6.85
2023-03-02T17:32:17.078Z,5.78
2023-03-02T17:33:40.554Z,8.60
2023-03-02T17:35:04.254Z,6.57
2023-03-02T17:36:27.643Z,7.57
2023-03-02T17:37:54.244Z,7.68
2023-03-02T17:39:17.619Z,5.88
2023-03-02T17:40:41.024Z,6.00
2023-03-02T17:42:06.047Z,6.72
2023-03-02T17:43:33.504Z,6.25
2023-03-02T17:44:56.984Z,6.68
2023-03-02T17:46:23.226Z,6.45
2023-03-02T17:47:46.668Z,4.40
2023-03-02T17:49:10.082Z,5.88
2023-03-02T17:50:33.465Z,5.47
2023-03-02T17:51:56.957Z,5.35
2023-03-02T17:53:20.344Z,6.43
2023-03-02T17:54:45.034Z,6.80
2023-03-02T17:56:08.955Z,6.15
2023-03-02T17:57:33.749Z,5.45
2023-03-02T17:58:58.710Z,6.80
2023-03-02T18:00:23.692Z,6.82
2023-03-02T18:01:47.106Z,5.75
2023-03-02T18:03:10.622Z,5.97
2023-03-02T18:04:34.078Z,6.35
2023-03-02T18:06:02.286Z,5.53
2023-03-02T18:07:25.672Z,5.68
2023-03-02T18:08:49.973Z,6.10
2023-03-02T18:10:14.086Z,5.05
2023-03-02T18:11:39.198Z,5.85
2023-03-02T18:13:03.919Z,5.88
2023-03-02T18:14:28.406Z,11.52
2023-03-02T18:15:51.773Z,6.38
2023-03-02T18:17:16.122Z,6.50
2023-03-02T18:18:39.575Z,6.85
2023-03-02T18:20:03.149Z,6.45
2023-03-02T18:21:26.567Z,7.65
2023-03-02T18:22:49.932Z,8.38
2023-03-02T18:24:13.358Z,10.05
2023-03-02T18:25:36.745Z,10.32
2023-03-02T18:27:00.157Z,10.50
2023-03-02T18:28:24.927Z,10.95
2023-03-02T18:29:48.497Z,11.27
2023-03-02T18:31:14.067Z,10.57
2023-03-02T18:32:37.544Z,11.80
2023-03-02T18:34:00.957Z,11.80
2023-03-02T18:35:24.777Z,11.02
2023-03-02T18:36:48.365Z,9.68
2023-03-02T18:38:11.801Z,11.55
2023-03-02T18:39:38.565Z,10.13
2023-03-02T18:41:03.631Z,11.18
2023-03-02T18:42:27.030Z,12.68